sensor_id;sensor_type;location;lat;lon;timestamp;temperature;humidity
8780;DHT22;62328;51.19929245;4.42130175;2022-12-07T00:00:47;6.70;99.90
8780;DHT22;62328;51.19929245;4.42130175;2022-12-07T00:03:14;6.70;99.90
8780;DHT22;62328;51.19929245;4.42130175;2022-12-07T00:05:41;6.70;99.90
8780;DHT22;62328;51.19929245;4.42130175;2022-12-07T00:08:08;6.70;99.90
8780;DHT22;62328;51.19929245;4.42130175;2022-12-07T00:10:35;6.60;99.90
8780;DHT22;62328;51.19929245;4.42130175;2022-12-07T00:13:02;6.70;99.90
8780;DHT22;62328;51.19929245;4.42130175;2022-12-07T00:15:30;6.70;99.90
8780;DHT22;62328;51.19929245;4.42130175;2022-12-07T00:17:57;6.60;99.90
8780;DHT22;62328;51.19929245;4.42130175;2022-12-07T00:20:24;6.70;99.90
8780;DHT22;62328;51.19929245;4.42130175;2022-12-07T00:22:50;6.70;99.90
8780;DHT22;62328;51.19929245;4.42130175;2022-12-07T00:25:17;6.60;99.90
8780;DHT22;62328;51.19929245;4.42130175;2022-12-07T00:27:44;6.60;99.90
8780;DHT22;62328;51.19929245;4.42130175;2022-12-07T00:30:11;6.60;99.90
8780;DHT22;62328;51.19929245;4.42130175;2022-12-07T00:32:39;6.50;99.90
8780;DHT22;62328;51.19929245;4.42130175;2022-12-07T00:35:07;6.50;99.90
8780;DHT22;62328;51.19929245;4.42130175;2022-12-07T00:37:34;6.50;99.90
8780;DHT22;62328;51.19929245;4.42130175;2022-12-07T00:40:01;6.50;99.90
8780;DHT22;62328;51.19929245;4.42130175;2022-12-07T00:42:27;6.50;99.90
8780;DHT22;62328;51.19929245;4.42130175;2022-12-07T00:44:54;6.50;99.90
8780;DHT22;62328;51.19929245;4.42130175;2022-12-07T00:47:21;6.50;99.90
8780;DHT22;62328;51.19929245;4.42130175;2022-12-07T00:49:49;6.50;99.90
8780;DHT22;62328;51.19929245;4.42130175;2022-12-07T00:52:17;6.50;99.90
8780;DHT22;62328;51.19929245;4.42130175;2022-12-07T00:54:43;6.60;99.90
8780;DHT22;62328;51.19929245;4.42130175;2022-12-07T00:57:10;6.50;99.90
8780;DHT22;62328;51.19929245;4.42130175;2022-12-07T00:59:37;6.50;99.90
8780;DHT22;62328;51.19929245;4.42130175;2022-12-07T01:02:04;6.60;99.90
8780;DHT22;62328;51.19929245;4.42130175;2022-12-07T01:04:33;6.60;99.90
8780;DHT22;62328;51.19929245;4.42130175;2022-12-07T01:07:01;6.60;99.90
8780;DHT22;62328;51.19929245;4.42130175;2022-12-07T01:09:28;6.60;99.90
8780;DHT22;62328;51.19929245;4.42130175;2022-12-07T01:11:55;6.60;99.90
8780;DHT22;62328;51.19929245;4.42130175;2022-12-07T01:14:21;6.60;99.90
8780;DHT22;62328;51.19929245;4.42130175;2022-12-07T01:16:48;6.60;99.90
8780;DHT22;62328;51.19929245;4.42130175;2022-12-07T01:19:15;6.50;99.90
8780;DHT22;62328;51.19929245;4.42130175;2022-12-07T01:21:42;6.60;99.90
8780;DHT22;62328;51.19929245;4.42130175;2022-12-07T01:24:11;6.50;99.90
8780;DHT22;62328;51.19929245;4.42130175;2022-12-07T01:26:38;6.50;99.90
8780;DHT22;62328;51.19929245;4.42130175;2022-12-07T01:29:05;6.50;99.90
8780;DHT22;62328;51.19929245;4.42130175;2022-12-07T01:31:32;6.50;99.90
8780;DHT22;62328;51.19929245;4.42130175;2022-12-07T01:34:00;6.40;99.90
8780;DHT22;62328;51.19929245;4.42130175;2022-12-07T01:36:28;6.40;99.90
8780;DHT22;62328;51.19929245;4.42130175;2022-12-07T01:38:57;6.40;99.90
8780;DHT22;62328;51.19929245;4.42130175;2022-12-07T01:41:28;6.40;99.90
8780;DHT22;62328;51.19929245;4.42130175;2022-12-07T01:44:14;6.40;99.90
8780;DHT22;62328;51.19929245;4.42130175;2022-12-07T01:46:42;6.40;99.90
8780;DHT22;62328;51.19929245;4.42130175;2022-12-07T01:49:13;6.40;99.90
8780;DHT22;62328;51.19929245;4.42130175;2022-12-07T01:51:43;6.40;99.90
8780;DHT22;62328;51.19929245;4.42130175;2022-12-07T01:54:11;6.40;99.90
8780;DHT22;62328;51.19929245;4.42130175;2022-12-07T01:56:44;6.40;99.90
8780;DHT22;62328;51.19929245;4.42130175;2022-12-07T01:59:13;6.40;99.90
8780;DHT22;62328;51.19929245;4.42130175;2022-12-07T02:01:41;6.40;99.90
8780;DHT22;62328;51.19929245;4.42130175;2022-12-07T02:04:08;6.30;99.90
8780;DHT22;62328;51.19929245;4.42130175;2022-12-07T02:06:37;6.40;99.90
8780;DHT22;62328;51.19929245;4.42130175;2022-12-07T02:09:04;6.30;99.90
8780;DHT22;62328;51.19929245;4.42130175;2022-12-07T02:11:31;6.40;99.90
8780;DHT22;62328;51.19929245;4.42130175;2022-12-07T02:14:00;6.30;99.90
8780;DHT22;62328;51.19929245;4.42130175;2022-12-07T02:16:32;6.40;99.90
8780;DHT22;62328;51.19929245;4.42130175;2022-12-07T02:19:21;6.40;99.90
8780;DHT22;62328;51.19929245;4.42130175;2022-12-07T02:21:52;6.50;99.90
8780;DHT22;62328;51.19929245;4.42130175;2022-12-07T02:24:40;6.40;99.90
8780;DHT22;62328;51.19929245;4.42130175;2022-12-07T02:27:33;6.40;99.90
8780;DHT22;62328;51.19929245;4.42130175;2022-12-07T02:30:06;6.40;99.90
8780;DHT22;62328;51.19929245;4.42130175;2022-12-07T02:32:43;6.50;99.90
8780;DHT22;62328;51.19929245;4.42130175;2022-12-07T02:35:17;6.50;99.90
8780;DHT22;62328;51.19929245;4.42130175;2022-12-07T02:37:56;6.50;99.90
8780;DHT22;62328;51.19929245;4.42130175;2022-12-07T02:40:29;6.50;99.90
8780;DHT22;62328;51.19929245;4.42130175;2022-12-07T02:43:02;6.60;99.90
8780;DHT22;62328;51.19929245;4.42130175;2022-12-07T02:45:34;6.60;99.90
8780;DHT22;62328;51.19929245;4.42130175;2022-12-07T02:48:05;6.60;99.90
8780;DHT22;62328;51.19929245;4.42130175;2022-12-07T02:50:33;6.60;99.90
8780;DHT22;62328;51.19929245;4.42130175;2022-12-07T02:53:00;6.60;99.90
8780;DHT22;62328;51.19929245;4.42130175;2022-12-07T02:55:30;6.60;99.90
8780;DHT22;62328;51.19929245;4.42130175;2022-12-07T02:58:20;6.60;99.90
8780;DHT22;62328;51.19929245;4.42130175;2022-12-07T03:00:58;6.60;99.90
8780;DHT22;62328;51.19929245;4.42130175;2022-12-07T03:03:28;6.60;99.90
8780;DHT22;62328;51.19929245;4.42130175;2022-12-07T03:06:11;6.60;99.90
8780;DHT22;62328;51.19929245;4.42130175;2022-12-07T03:08:48;6.60;99.90
8780;DHT22;62328;51.19929245;4.42130175;2022-12-07T03:11:22;6.50;99.90
8780;DHT22;62328;51.19929245;4.42130175;2022-12-07T03:13:56;6.50;99.90
8780;DHT22;62328;51.19929245;4.42130175;2022-12-07T03:16:29;6.50;99.90
8780;DHT22;62328;51.19929245;4.42130175;2022-12-07T03:19:00;6.50;99.90
8780;DHT22;62328;51.19929245;4.42130175;2022-12-07T03:21:34;6.50;99.90
8780;DHT22;62328;51.19929245;4.42130175;2022-12-07T03:24:07;6.50;99.90
8780;DHT22;62328;51.19929245;4.42130175;2022-12-07T03:26:38;6.50;99.90
8780;DHT22;62328;51.19929245;4.42130175;2022-12-07T03:29:10;6.50;99.90
8780;DHT22;62328;51.19929245;4.42130175;2022-12-07T03:31:42;6.50;99.90
8780;DHT22;62328;51.19929245;4.42130175;2022-12-07T03:34:14;6.50;99.90
8780;DHT22;62328;51.19929245;4.42130175;2022-12-07T03:36:47;6.50;99.90
8780;DHT22;62328;51.19929245;4.42130175;2022-12-07T03:39:20;6.40;99.90
8780;DHT22;62328;51.19929245;4.42130175;2022-12-07T03:41:49;6.40;99.90
8780;DHT22;62328;51.19929245;4.42130175;2022-12-07T03:44:16;6.40;99.90
8780;DHT22;62328;51.19929245;4.42130175;2022-12-07T03:46:50;6.40;99.90
8780;DHT22;62328;51.19929245;4.42130175;2022-12-07T03:49:22;6.40;99.90
8780;DHT22;62328;51.19929245;4.42130175;2022-12-07T03:51:55;6.40;99.90
8780;DHT22;62328;51.19929245;4.42130175;2022-12-07T03:54:27;6.40;99.90
8780;DHT22;62328;51.19929245;4.42130175;2022-12-07T03:56:57;6.40;99.90
8780;DHT22;62328;51.19929245;4.42130175;2022-12-07T03:59:25;6.40;99.90
8780;DHT22;62328;51.19929245;4.42130175;2022-12-07T04:01:56;6.40;99.90
8780;DHT22;62328;51.19929245;4.42130175;2022-12-07T04:04:24;6.40;99.90
8780;DHT22;62328;51.19929245;4.42130175;2022-12-07T04:06:52;6.40;99.90
8780;DHT22;62328;51.19929245;4.42130175;2022-12-07T04:09:19;6.40;99.90
8780;DHT22;62328;51.19929245;4.42130175;2022-12-07T04:11:46;6.40;99.90
8780;DHT22;62328;51.19929245;4.42130175;2022-12-07T04:14:13;6.40;99.90
8780;DHT22;62328;51.19929245;4.42130175;2022-12-07T04:16:46;6.40;99.90
8780;DHT22;62328;51.19929245;4.42130175;2022-12-07T04:19:15;6.30;99.90
8780;DHT22;62328;51.19929245;4.42130175;2022-12-07T04:21:42;6.40;99.90
8780;DHT22;62328;51.19929245;4.42130175;2022-12-07T04:24:09;6.30;99.90
8780;DHT22;62328;51.19929245;4.42130175;2022-12-07T04:26:36;6.30;99.90
8780;DHT22;62328;51.19929245;4.42130175;2022-12-07T04:29:03;6.30;99.90
8780;DHT22;62328;51.19929245;4.42130175;2022-12-07T04:31:30;6.30;99.90
8780;DHT22;62328;51.19929245;4.42130175;2022-12-07T04:33:57;6.30;99.90
8780;DHT22;62328;51.19929245;4.42130175;2022-12-07T04:36:25;6.30;99.90
8780;DHT22;62328;51.19929245;4.42130175;2022-12-07T04:38:53;6.30;99.90
8780;DHT22;62328;51.19929245;4.42130175;2022-12-07T04:41:20;6.40;99.90
8780;DHT22;62328;51.19929245;4.42130175;2022-12-07T04:43:53;6.40;99.90
8780;DHT22;62328;51.19929245;4.42130175;2022-12-07T04:46:19;6.40;99.90
8780;DHT22;62328;51.19929245;4.42130175;2022-12-07T04:48:47;6.40;99.90
8780;DHT22;62328;51.19929245;4.42130175;2022-12-07T04:51:16;6.40;99.90
8780;DHT22;62328;51.19929245;4.42130175;2022-12-07T04:53:46;6.40;99.90
8780;DHT22;62328;51.19929245;4.42130175;2022-12-07T04:56:16;6.40;99.90
8780;DHT22;62328;51.19929245;4.42130175;2022-12-07T04:58:44;6.40;99.90
8780;DHT22;62328;51.19929245;4.42130175;2022-12-07T05:01:11;6.40;99.90
8780;DHT22;62328;51.19929245;4.42130175;2022-12-07T05:03:38;6.40;99.90
8780;DHT22;62328;51.19929245;4.42130175;2022-12-07T05:06:06;6.40;99.90
8780;DHT22;62328;51.19929245;4.42130175;2022-12-07T05:08:34;6.50;99.90
8780;DHT22;62328;51.19929245;4.42130175;2022-12-07T05:11:03;6.50;99.90
8780;DHT22;62328;51.19929245;4.42130175;2022-12-07T05:13:30;6.50;99.90
8780;DHT22;62328;51.19929245;4.42130175;2022-12-07T05:15:58;6.50;99.90
8780;DHT22;62328;51.19929245;4.42130175;2022-12-07T05:18:25;6.50;99.90
8780;DHT22;62328;51.19929245;4.42130175;2022-12-07T05:20:52;6.50;99.90
8780;DHT22;62328;51.19929245;4.42130175;2022-12-07T05:23:19;6.50;99.90
8780;DHT22;62328;51.19929245;4.42130175;2022-12-07T05:25:46;6.50;99.90
8780;DHT22;62328;51.19929245;4.42130175;2022-12-07T05:28:15;6.60;99.90
8780;DHT22;62328;51.19929245;4.42130175;2022-12-07T05:30:42;6.60;99.90
8780;DHT22;62328;51.19929245;4.42130175;2022-12-07T05:33:09;6.60;99.90
8780;DHT22;62328;51.19929245;4.42130175;2022-12-07T05:35:36;6.60;99.90
8780;DHT22;62328;51.19929245;4.42130175;2022-12-07T05:38:03;6.50;99.90
8780;DHT22;62328;51.19929245;4.42130175;2022-12-07T05:40:30;6.50;99.90
8780;DHT22;62328;51.19929245;4.42130175;2022-12-07T05:42:59;6.50;99.90
8780;DHT22;62328;51.19929245;4.42130175;2022-12-07T05:45:26;6.50;99.90
8780;DHT22;62328;51.19929245;4.42130175;2022-12-07T05:47:53;6.50;99.90
8780;DHT22;62328;51.19929245;4.42130175;2022-12-07T05:50:20;6.50;99.90
8780;DHT22;62328;51.19929245;4.42130175;2022-12-07T05:52:47;6.60;99.90
8780;DHT22;62328;51.19929245;4.42130175;2022-12-07T05:55:14;6.60;99.90
8780;DHT22;62328;51.19929245;4.42130175;2022-12-07T05:57:41;6.60;99.90
8780;DHT22;62328;51.19929245;4.42130175;2022-12-07T06:00:29;6.60;99.90
8780;DHT22;62328;51.19929245;4.42130175;2022-12-07T06:02:55;6.60;99.90
8780;DHT22;62328;51.19929245;4.42130175;2022-12-07T06:05:22;6.60;99.90
8780;DHT22;62328;51.19929245;4.42130175;2022-12-07T06:07:49;6.60;99.90
8780;DHT22;62328;51.19929245;4.42130175;2022-12-07T06:10:16;6.60;99.90
8780;DHT22;62328;51.19929245;4.42130175;2022-12-07T06:12:43;6.70;99.90
8780;DHT22;62328;51.19929245;4.42130175;2022-12-07T06:15:12;6.70;99.90
8780;DHT22;62328;51.19929245;4.42130175;2022-12-07T06:17:40;6.70;99.90
8780;DHT22;62328;51.19929245;4.42130175;2022-12-07T06:20:07;6.70;99.90
8780;DHT22;62328;51.19929245;4.42130175;2022-12-07T06:22:34;6.70;99.90
8780;DHT22;62328;51.19929245;4.42130175;2022-12-07T06:25:01;6.70;99.90
8780;DHT22;62328;51.19929245;4.42130175;2022-12-07T06:27:29;6.70;99.90
8780;DHT22;62328;51.19929245;4.42130175;2022-12-07T06:29:58;6.70;99.90
8780;DHT22;62328;51.19929245;4.42130175;2022-12-07T06:32:25;6.70;99.90
8780;DHT22;62328;51.19929245;4.42130175;2022-12-07T06:34:53;6.70;99.90
8780;DHT22;62328;51.19929245;4.42130175;2022-12-07T06:37:20;6.80;99.90
8780;DHT22;62328;51.19929245;4.42130175;2022-12-07T06:39:47;6.70;99.90
8780;DHT22;62328;51.19929245;4.42130175;2022-12-07T06:42:14;6.70;99.90
8780;DHT22;62328;51.19929245;4.42130175;2022-12-07T06:44:41;6.70;99.90
8780;DHT22;62328;51.19929245;4.42130175;2022-12-07T06:47:08;6.70;99.90
8780;DHT22;62328;51.19929245;4.42130175;2022-12-07T06:49:37;6.70;99.90
8780;DHT22;62328;51.19929245;4.42130175;2022-12-07T06:52:05;6.70;99.90
8780;DHT22;62328;51.19929245;4.42130175;2022-12-07T06:54:32;6.70;99.90
8780;DHT22;62328;51.19929245;4.42130175;2022-12-07T06:56:59;6.70;99.90
8780;DHT22;62328;51.19929245;4.42130175;2022-12-07T06:59:26;6.60;99.90
8780;DHT22;62328;51.19929245;4.42130175;2022-12-07T07:01:53;6.60;99.90
8780;DHT22;62328;51.19929245;4.42130175;2022-12-07T07:04:21;6.60;99.90
8780;DHT22;62328;51.19929245;4.42130175;2022-12-07T07:06:49;6.60;99.90
8780;DHT22;62328;51.19929245;4.42130175;2022-12-07T07:09:17;6.60;99.90
8780;DHT22;62328;51.19929245;4.42130175;2022-12-07T07:11:44;6.50;99.90
8780;DHT22;62328;51.19929245;4.42130175;2022-12-07T07:14:13;6.60;99.90
8780;DHT22;62328;51.19929245;4.42130175;2022-12-07T07:16:44;6.50;99.90
8780;DHT22;62328;51.19929245;4.42130175;2022-12-07T07:19:11;6.50;99.90
8780;DHT22;62328;51.19929245;4.42130175;2022-12-07T07:21:41;6.50;99.90
8780;DHT22;62328;51.19929245;4.42130175;2022-12-07T07:24:08;6.50;99.90
8780;DHT22;62328;51.19929245;4.42130175;2022-12-07T07:26:36;6.50;99.90
8780;DHT22;62328;51.19929245;4.42130175;2022-12-07T07:29:03;6.50;99.90
8780;DHT22;62328;51.19929245;4.42130175;2022-12-07T07:31:30;6.40;99.90
8780;DHT22;62328;51.19929245;4.42130175;2022-12-07T07:33:57;6.50;99.90
8780;DHT22;62328;51.19929245;4.42130175;2022-12-07T07:36:24;6.40;99.90
8780;DHT22;62328;51.19929245;4.42130175;2022-12-07T07:38:50;6.40;99.90
8780;DHT22;62328;51.19929245;4.42130175;2022-12-07T07:41:18;6.40;99.90
8780;DHT22;62328;51.19929245;4.42130175;2022-12-07T07:43:46;6.40;99.90
8780;DHT22;62328;51.19929245;4.42130175;2022-12-07T07:46:13;6.30;99.90
8780;DHT22;62328;51.19929245;4.42130175;2022-12-07T07:48:40;6.30;99.90
8780;DHT22;62328;51.19929245;4.42130175;2022-12-07T07:51:07;6.30;99.90
8780;DHT22;62328;51.19929245;4.42130175;2022-12-07T07:53:34;6.30;99.90
8780;DHT22;62328;51.19929245;4.42130175;2022-12-07T07:56:01;6.30;99.90
8780;DHT22;62328;51.19929245;4.42130175;2022-12-07T07:58:28;6.30;99.90
8780;DHT22;62328;51.19929245;4.42130175;2022-12-07T08:00:57;6.30;99.90
8780;DHT22;62328;51.19929245;4.42130175;2022-12-07T08:03:29;6.30;99.90
8780;DHT22;62328;51.19929245;4.42130175;2022-12-07T08:05:56;6.30;99.90
8780;DHT22;62328;51.19929245;4.42130175;2022-12-07T08:08:23;6.30;99.90
8780;DHT22;62328;51.19929245;4.42130175;2022-12-07T08:10:49;6.40;99.90
8780;DHT22;62328;51.19929245;4.42130175;2022-12-07T08:13:17;6.40;99.90
8780;DHT22;62328;51.19929245;4.42130175;2022-12-07T08:15:46;6.40;99.90
8780;DHT22;62328;51.19929245;4.42130175;2022-12-07T08:18:15;6.40;99.90
8780;DHT22;62328;51.19929245;4.42130175;2022-12-07T08:20:42;6.50;99.90
8780;DHT22;62328;51.19929245;4.42130175;2022-12-07T08:23:10;6.50;99.90
8780;DHT22;62328;51.19929245;4.42130175;2022-12-07T08:25:37;6.50;99.90
8780;DHT22;62328;51.19929245;4.42130175;2022-12-07T08:28:04;6.50;99.90
8780;DHT22;62328;51.19929245;4.42130175;2022-12-07T08:30:32;6.50;99.90
8780;DHT22;62328;51.19929245;4.42130175;2022-12-07T08:32:59;6.50;99.90
8780;DHT22;62328;51.19929245;4.42130175;2022-12-07T08:35:27;6.50;99.90
8780;DHT22;62328;51.19929245;4.42130175;2022-12-07T08:37:54;6.50;99.90
8780;DHT22;62328;51.19929245;4.42130175;2022-12-07T08:40:22;6.50;99.90
8780;DHT22;62328;51.19929245;4.42130175;2022-12-07T08:42:50;6.50;99.90
8780;DHT22;62328;51.19929245;4.42130175;2022-12-07T08:45:18;6.50;99.90
8780;DHT22;62328;51.19929245;4.42130175;2022-12-07T08:47:48;6.50;99.90
8780;DHT22;62328;51.19929245;4.42130175;2022-12-07T08:50:17;6.60;99.90
8780;DHT22;62328;51.19929245;4.42130175;2022-12-07T08:52:48;6.60;99.90
8780;DHT22;62328;51.19929245;4.42130175;2022-12-07T08:55:17;6.60;99.90
8780;DHT22;62328;51.19929245;4.42130175;2022-12-07T08:57:44;6.60;99.90
8780;DHT22;62328;51.19929245;4.42130175;2022-12-07T09:00:12;6.60;99.90
8780;DHT22;62328;51.19929245;4.42130175;2022-12-07T09:02:39;6.60;99.90
8780;DHT22;62328;51.19929245;4.42130175;2022-12-07T09:05:07;6.70;99.90
8780;DHT22;62328;51.19929245;4.42130175;2022-12-07T09:07:35;6.80;99.90
8780;DHT22;62328;51.19929245;4.42130175;2022-12-07T09:10:05;6.90;99.90
8780;DHT22;62328;51.19929245;4.42130175;2022-12-07T09:12:32;6.90;99.90
8780;DHT22;62328;51.19929245;4.42130175;2022-12-07T09:14:59;6.90;99.90
8780;DHT22;62328;51.19929245;4.42130175;2022-12-07T09:17:27;6.90;99.90
8780;DHT22;62328;51.19929245;4.42130175;2022-12-07T09:19:54;7.00;99.90
8780;DHT22;62328;51.19929245;4.42130175;2022-12-07T09:22:20;7.00;99.90
8780;DHT22;62328;51.19929245;4.42130175;2022-12-07T09:24:47;7.00;99.90
8780;DHT22;62328;51.19929245;4.42130175;2022-12-07T09:27:16;7.00;99.90
8780;DHT22;62328;51.19929245;4.42130175;2022-12-07T09:29:43;7.00;99.90
8780;DHT22;62328;51.19929245;4.42130175;2022-12-07T09:32:10;7.10;99.90
8780;DHT22;62328;51.19929245;4.42130175;2022-12-07T09:34:36;7.10;99.90
8780;DHT22;62328;51.19929245;4.42130175;2022-12-07T09:37:03;7.20;99.90
8780;DHT22;62328;51.19929245;4.42130175;2022-12-07T09:39:30;7.30;99.90
8780;DHT22;62328;51.19929245;4.42130175;2022-12-07T09:41:59;7.40;99.90
8780;DHT22;62328;51.19929245;4.42130175;2022-12-07T09:44:30;7.40;99.90
8780;DHT22;62328;51.19929245;4.42130175;2022-12-07T09:46:57;7.40;99.90
8780;DHT22;62328;51.19929245;4.42130175;2022-12-07T09:49:28;7.40;99.90
8780;DHT22;62328;51.19929245;4.42130175;2022-12-07T09:52:01;7.40;99.90
8780;DHT22;62328;51.19929245;4.42130175;2022-12-07T09:54:28;7.40;99.90
8780;DHT22;62328;51.19929245;4.42130175;2022-12-07T09:56:56;7.40;99.90
8780;DHT22;62328;51.19929245;4.42130175;2022-12-07T09:59:22;7.40;99.90
8780;DHT22;62328;51.19929245;4.42130175;2022-12-07T10:01:51;7.40;99.90
8780;DHT22;62328;51.19929245;4.42130175;2022-12-07T10:04:20;7.40;99.90
8780;DHT22;62328;51.19929245;4.42130175;2022-12-07T10:06:48;7.30;99.90
8780;DHT22;62328;51.19929245;4.42130175;2022-12-07T10:09:18;7.30;99.90
8780;DHT22;62328;51.19929245;4.42130175;2022-12-07T10:12:05;7.30;99.90
8780;DHT22;62328;51.19929245;4.42130175;2022-12-07T10:14:36;7.40;99.90
8780;DHT22;62328;51.19929245;4.42130175;2022-12-07T10:17:29;7.50;99.90
8780;DHT22;62328;51.19929245;4.42130175;2022-12-07T10:20:12;7.50;99.90
8780;DHT22;62328;51.19929245;4.42130175;2022-12-07T10:22:54;7.60;99.90
8780;DHT22;62328;51.19929245;4.42130175;2022-12-07T10:25:24;7.60;99.90
8780;DHT22;62328;51.19929245;4.42130175;2022-12-07T10:27:58;7.60;99.90
8780;DHT22;62328;51.19929245;4.42130175;2022-12-07T10:30:26;7.60;99.90
8780;DHT22;62328;51.19929245;4.42130175;2022-12-07T10:32:54;7.70;99.90
8780;DHT22;62328;51.19929245;4.42130175;2022-12-07T10:35:24;7.60;99.90
8780;DHT22;62328;51.19929245;4.42130175;2022-12-07T10:37:53;7.60;99.90
8780;DHT22;62328;51.19929245;4.42130175;2022-12-07T10:40:29;7.60;99.90
8780;DHT22;62328;51.19929245;4.42130175;2022-12-07T10:43:15;7.70;99.90
8780;DHT22;62328;51.19929245;4.42130175;2022-12-07T10:46:07;7.70;99.90
8780;DHT22;62328;51.19929245;4.42130175;2022-12-07T10:48:45;7.70;99.90
8780;DHT22;62328;51.19929245;4.42130175;2022-12-07T10:51:17;7.70;99.90
8780;DHT22;62328;51.19929245;4.42130175;2022-12-07T10:53:55;7.80;99.90
8780;DHT22;62328;51.19929245;4.42130175;2022-12-07T10:56:44;7.80;99.90
8780;DHT22;62328;51.19929245;4.42130175;2022-12-07T10:59:28;7.80;99.90
8780;DHT22;62328;51.19929245;4.42130175;2022-12-07T11:02:11;7.80;99.90
8780;DHT22;62328;51.19929245;4.42130175;2022-12-07T11:04:55;7.80;99.90
8780;DHT22;62328;51.19929245;4.42130175;2022-12-07T11:07:38;7.90;99.90
8780;DHT22;62328;51.19929245;4.42130175;2022-12-07T11:10:08;7.90;99.90
8780;DHT22;62328;51.19929245;4.42130175;2022-12-07T11:12:51;7.90;99.90
8780;DHT22;62328;51.19929245;4.42130175;2022-12-07T11:15:24;7.90;99.90
8780;DHT22;62328;51.19929245;4.42130175;2022-12-07T11:17:58;8.00;99.90
8780;DHT22;62328;51.19929245;4.42130175;2022-12-07T11:20:41;7.90;99.90
8780;DHT22;62328;51.19929245;4.42130175;2022-12-07T11:23:17;8.00;99.90
8780;DHT22;62328;51.19929245;4.42130175;2022-12-07T11:25:52;7.90;99.90
8780;DHT22;62328;51.19929245;4.42130175;2022-12-07T11:28:29;7.90;99.90
8780;DHT22;62328;51.19929245;4.42130175;2022-12-07T11:31:08;7.90;99.90
8780;DHT22;62328;51.19929245;4.42130175;2022-12-07T11:33:45;8.00;99.90
8780;DHT22;62328;51.19929245;4.42130175;2022-12-07T11:36:31;8.00;99.90
8780;DHT22;62328;51.19929245;4.42130175;2022-12-07T11:39:02;8.00;99.90
8780;DHT22;62328;51.19929245;4.42130175;2022-12-07T11:41:32;8.00;99.90
8780;DHT22;62328;51.19929245;4.42130175;2022-12-07T11:44:05;8.10;99.90
8780;DHT22;62328;51.19929245;4.42130175;2022-12-07T11:46:44;8.00;99.90
8780;DHT22;62328;51.19929245;4.42130175;2022-12-07T11:49:16;8.10;99.90
8780;DHT22;62328;51.19929245;4.42130175;2022-12-07T11:51:50;8.10;99.90
8780;DHT22;62328;51.19929245;4.42130175;2022-12-07T11:54:23;8.10;99.90
8780;DHT22;62328;51.19929245;4.42130175;2022-12-07T11:56:51;8.10;99.90
8780;DHT22;62328;51.19929245;4.42130175;2022-12-07T11:59:25;8.10;99.90
8780;DHT22;62328;51.19929245;4.42130175;2022-12-07T12:01:56;8.10;99.90
8780;DHT22;62328;51.19929245;4.42130175;2022-12-07T12:04:37;8.10;99.90
8780;DHT22;62328;51.19929245;4.42130175;2022-12-07T12:07:07;8.10;99.90
8780;DHT22;62328;51.19929245;4.42130175;2022-12-07T12:09:39;8.10;99.90
8780;DHT22;62328;51.19929245;4.42130175;2022-12-07T12:12:33;8.10;99.90
8780;DHT22;62328;51.19929245;4.42130175;2022-12-07T12:18:25;8.10;99.90
8780;DHT22;62328;51.19929245;4.42130175;2022-12-07T12:20:57;8.10;99.90
8780;DHT22;62328;51.19929245;4.42130175;2022-12-07T12:23:35;8.10;99.90
8780;DHT22;62328;51.19929245;4.42130175;2022-12-07T12:26:05;8.10;99.90
8780;DHT22;62328;51.19929245;4.42130175;2022-12-07T12:28:37;8.00;99.90
8780;DHT22;62328;51.19929245;4.42130175;2022-12-07T12:31:09;8.00;99.90
8780;DHT22;62328;51.19929245;4.42130175;2022-12-07T12:33:37;7.90;99.90
8780;DHT22;62328;51.19929245;4.42130175;2022-12-07T12:36:20;7.90;99.90
8780;DHT22;62328;51.19929245;4.42130175;2022-12-07T12:39:08;7.90;99.90
8780;DHT22;62328;51.19929245;4.42130175;2022-12-07T12:41:56;7.80;99.90
8780;DHT22;62328;51.19929245;4.42130175;2022-12-07T12:45:04;7.90;99.90
8780;DHT22;62328;51.19929245;4.42130175;2022-12-07T12:47:58;7.90;99.90
8780;DHT22;62328;51.19929245;4.42130175;2022-12-07T12:50:28;7.90;99.90
8780;DHT22;62328;51.19929245;4.42130175;2022-12-07T12:53:14;8.00;99.90
8780;DHT22;62328;51.19929245;4.42130175;2022-12-07T12:56:11;8.10;99.90
8780;DHT22;62328;51.19929245;4.42130175;2022-12-07T12:58:42;8.20;99.90
8780;DHT22;62328;51.19929245;4.42130175;2022-12-07T13:01:44;8.20;99.90
8780;DHT22;62328;51.19929245;4.42130175;2022-12-07T13:07:12;8.20;99.90
8780;DHT22;62328;51.19929245;4.42130175;2022-12-07T13:09:43;8.20;99.90
8780;DHT22;62328;51.19929245;4.42130175;2022-12-07T13:12:15;8.20;99.90
8780;DHT22;62328;51.19929245;4.42130175;2022-12-07T13:14:54;8.30;99.90
8780;DHT22;62328;51.19929245;4.42130175;2022-12-07T13:17:57;8.20;99.90
8780;DHT22;62328;51.19929245;4.42130175;2022-12-07T13:20:47;8.20;99.90
8780;DHT22;62328;51.19929245;4.42130175;2022-12-07T13:23:18;8.10;99.90
8780;DHT22;62328;51.19929245;4.42130175;2022-12-07T13:25:54;8.10;99.90
8780;DHT22;62328;51.19929245;4.42130175;2022-12-07T13:28:26;8.20;99.90
8780;DHT22;62328;51.19929245;4.42130175;2022-12-07T13:31:13;8.10;99.90
8780;DHT22;62328;51.19929245;4.42130175;2022-12-07T13:33:43;8.10;99.90
8780;DHT22;62328;51.19929245;4.42130175;2022-12-07T13:36:17;8.00;99.90
8780;DHT22;62328;51.19929245;4.42130175;2022-12-07T13:38:49;7.90;99.90
8780;DHT22;62328;51.19929245;4.42130175;2022-12-07T13:41:18;7.90;99.90
8780;DHT22;62328;51.19929245;4.42130175;2022-12-07T13:43:50;8.00;99.90
8780;DHT22;62328;51.19929245;4.42130175;2022-12-07T13:46:24;7.90;99.90
8780;DHT22;62328;51.19929245;4.42130175;2022-12-07T13:48:52;7.90;99.90
8780;DHT22;62328;51.19929245;4.42130175;2022-12-07T13:51:22;7.90;99.90
8780;DHT22;62328;51.19929245;4.42130175;2022-12-07T13:53:51;7.80;99.90
8780;DHT22;62328;51.19929245;4.42130175;2022-12-07T13:56:20;7.80;99.90
8780;DHT22;62328;51.19929245;4.42130175;2022-12-07T13:58:49;7.80;99.90
8780;DHT22;62328;51.19929245;4.42130175;2022-12-07T14:01:16;7.70;99.90
8780;DHT22;62328;51.19929245;4.42130175;2022-12-07T14:03:44;7.70;99.90
8780;DHT22;62328;51.19929245;4.42130175;2022-12-07T14:06:17;7.70;99.90
8780;DHT22;62328;51.19929245;4.42130175;2022-12-07T14:08:44;7.60;99.90
8780;DHT22;62328;51.19929245;4.42130175;2022-12-07T14:11:15;7.70;99.90
8780;DHT22;62328;51.19929245;4.42130175;2022-12-07T14:13:59;7.70;99.90